createdAt,value
2022-10-17T00:00:44.043Z,101882.25
2022-10-17T00:03:11.312Z,101874.13
2022-10-17T00:05:42.785Z,101874.25
2022-10-17T00:08:11.107Z,101883.41
2022-10-17T00:10:38.690Z,101889.94
2022-10-17T00:13:06.394Z,101890.94
2022-10-17T00:15:33.597Z,101885.66
2022-10-17T00:18:00.807Z,101876.69
2022-10-17T00:20:30.389Z,101885.66
2022-10-17T00:22:57.604Z,101889.22
2022-10-17T00:25:24.743Z,101890.91
2022-10-17T00:27:51.922Z,101890.16
2022-10-17T00:30:19.255Z,101896.56
2022-10-17T00:32:46.436Z,101894.78
2022-10-17T00:35:13.563Z,101901.06
2022-10-17T00:37:42.162Z,101896.59
2022-10-17T00:40:10.048Z,101902.91
2022-10-17T00:42:37.218Z,101903.94
2022-10-17T00:45:07.842Z,101904.91
2022-10-17T00:47:36.048Z,101905.91
2022-10-17T00:50:04.975Z,101903.16
2022-10-17T00:52:32.339Z,101906.72
2022-10-17T00:55:07.981Z,101904.97
2022-10-17T00:57:35.262Z,101902.25
2022-10-17T01:00:06.877Z,101902.22
2022-10-17T01:02:35.642Z,101903.97
2022-10-17T01:05:03.239Z,101905.69
2022-10-17T01:07:34.641Z,101906.63
2022-10-17T01:10:05.912Z,101898.59
2022-10-17T01:12:41.352Z,101900.47
2022-10-17T01:15:17.725Z,101901.34
2022-10-17T01:17:53.647Z,101896.97
2022-10-17T01:20:21.361Z,101901.53
2022-10-17T01:23:06.989Z,101899.78
2022-10-17T01:25:53.091Z,101898.00
2022-10-17T01:28:20.381Z,101894.41
2022-10-17T01:30:56.552Z,101896.16
2022-10-17T01:33:25.099Z,101891.72
2022-10-17T01:36:03.237Z,101894.63
2022-10-17T01:38:41.063Z,101894.63
2022-10-17T01:41:17.404Z,101895.44
2022-10-17T01:43:47.727Z,101893.69
2022-10-17T01:46:30.361Z,101896.47
2022-10-17T01:48:59.988Z,101884.88
2022-10-17T01:51:47.424Z,101890.34
2022-10-17T01:54:27.515Z,101887.09
2022-10-17T01:56:58.179Z,101883.44
2022-10-17T01:59:31.889Z,101882.44
2022-10-17T02:02:00.740Z,101886.81
2022-10-17T02:04:28.337Z,101885.78
2022-10-17T02:06:55.484Z,101889.34
2022-10-17T02:09:27.298Z,101883.06
2022-10-17T02:12:14.771Z,101873.31
2022-10-17T02:14:54.234Z,101871.38
2022-10-17T02:17:42.362Z,101871.28
2022-10-17T02:20:17.400Z,101870.22
2022-10-17T02:22:51.599Z,101866.50
2022-10-17T02:25:29.346Z,101864.91
2022-10-17T02:27:57.001Z,101864.19
2022-10-17T02:30:30.654Z,101866.78
2022-10-17T02:33:05.132Z,101864.84
2022-10-17T02:35:35.734Z,101863.22
2022-10-17T02:38:05.204Z,101863.31
2022-10-17T02:40:32.967Z,101860.03
2022-10-17T02:43:03.571Z,101868.13
2022-10-17T02:45:35.927Z,101872.63
2022-10-17T02:48:07.174Z,101863.84
2022-10-17T02:50:50.198Z,101862.25
2022-10-17T02:53:25.661Z,101866.78
2022-10-17T02:55:57.248Z,101870.47
2022-10-17T02:58:27.735Z,101870.75
2022-10-17T03:00:55.928Z,101872.47
2022-10-17T03:03:24.718Z,101880.53
2022-10-17T03:05:52.282Z,101888.47
2022-10-17T03:08:23.078Z,101888.38
2022-10-17T03:10:50.961Z,101891.25
2022-10-17T03:13:19.642Z,101889.69
2022-10-17T03:15:46.962Z,101896.97
2022-10-17T03:18:14.605Z,101889.81
2022-10-17T03:20:41.789Z,101896.91
2022-10-17T03:23:09.133Z,101893.22
2022-10-17T03:25:37.240Z,101891.38
2022-10-17T03:28:05.531Z,101895.78
2022-10-17T03:30:34.071Z,101892.03
2022-10-17T03:33:01.287Z,101894.78
2022-10-17T03:35:28.386Z,101905.38
2022-10-17T03:37:56.529Z,101904.50
2022-10-17T03:40:26.389Z,101904.63
2022-10-17T03:42:54.557Z,101912.69
2022-10-17T03:45:22.692Z,101909.94
2022-10-17T03:47:51.537Z,101925.19
2022-10-17T03:50:18.767Z,101919.06
2022-10-17T03:52:48.451Z,101924.50
2022-10-17T03:55:15.986Z,101912.00
2022-10-17T03:57:45.524Z,101918.16
2022-10-17T04:00:15.599Z,101917.19
2022-10-17T04:02:45.325Z,101926.81
2022-10-17T04:05:18.821Z,101914.09
2022-10-17T04:07:47.201Z,101926.59
2022-10-17T04:10:16.319Z,101925.69
2022-10-17T04:12:43.785Z,101928.38
2022-10-17T04:15:11.348Z,101929.47
2022-10-17T04:17:38.756Z,101933.19
2022-10-17T04:20:07.508Z,101931.34
2022-10-17T04:22:34.748Z,101932.97
2022-10-17T04:25:02.093Z,101937.63
2022-10-17T04:27:41.088Z,101936.94
2022-10-17T04:30:08.957Z,101944.31
2022-10-17T04:32:37.692Z,101944.50
2022-10-17T04:35:11.451Z,101942.59
2022-10-17T04:37:41.802Z,101944.22
2022-10-17T04:40:15.845Z,101952.25
2022-10-17T04:42:43.569Z,101954.09
2022-10-17T04:45:13.754Z,101962.16
2022-10-17T04:47:41.940Z,101959.47
2022-10-17T04:50:09.519Z,101955.97
2022-10-17T04:52:39.970Z,101958.59
2022-10-17T04:55:08.583Z,101963.03
2022-10-17T04:57:36.365Z,101958.66
2022-10-17T05:00:14.514Z,101964.94
2022-10-17T05:02:53.508Z,101968.56
2022-10-17T05:05:21.009Z,101970.53
2022-10-17T05:07:51.358Z,101970.41
2022-10-17T05:13:05.659Z,101974.69
2022-10-17T05:15:34.219Z,101990.75
2022-10-17T05:18:02.341Z,101980.94
2022-10-17T05:20:30.274Z,101979.22
2022-10-17T05:23:00.803Z,101977.44
2022-10-17T05:25:33.029Z,101983.69
2022-10-17T05:28:00.185Z,101989.09
2022-10-17T05:30:27.631Z,101988.22
2022-10-17T05:32:59.277Z,101988.16
2022-10-17T05:35:26.497Z,101990.06
2022-10-17T05:37:53.729Z,101993.63
2022-10-17T05:40:22.423Z,101992.75
2022-10-17T05:42:52.358Z,101987.56
2022-10-17T05:45:20.095Z,101992.09
2022-10-17T05:47:47.281Z,101998.38
2022-10-17T05:50:14.714Z,102001.22
2022-10-17T05:52:59.068Z,101999.09
2022-10-17T05:55:26.304Z,102017.16
2022-10-17T05:57:54.045Z,102020.13
2022-10-17T06:00:22.833Z,102031.53
2022-10-17T06:02:56.694Z,102034.03
2022-10-17T06:05:24.837Z,102049.00
2022-10-17T06:07:58.243Z,102048.16
2022-10-17T06:10:29.612Z,102039.84
2022-10-17T06:12:57.611Z,102048.69
2022-10-17T06:15:25.952Z,102045.94
2022-10-17T06:18:00.019Z,102054.66
2022-10-17T06:20:27.152Z,102054.59
2022-10-17T06:22:54.410Z,102056.41
2022-10-17T06:25:34.704Z,102058.91
2022-10-17T06:28:02.082Z,102060.63
2022-10-17T06:30:29.719Z,102073.66
2022-10-17T06:32:57.090Z,102070.19
2022-10-17T06:35:24.617Z,102070.94
2022-10-17T06:37:51.851Z,102075.44
2022-10-17T06:40:19.152Z,102074.56
2022-10-17T06:42:46.387Z,102087.97
2022-10-17T06:45:38.238Z,102081.53
2022-10-17T06:48:18.296Z,102091.19
2022-10-17T06:51:09.781Z,102089.06
2022-10-17T06:53:45.462Z,102089.66
2022-10-17T06:56:30.936Z,102088.47
2022-10-17T06:59:09.870Z,102092.81
2022-10-17T07:01:40.692Z,102096.19
2022-10-17T07:04:11.980Z,102092.38
2022-10-17T07:06:39.176Z,102098.41
2022-10-17T07:09:12.586Z,102107.28
2022-10-17T07:11:40.289Z,102097.94
2022-10-17T07:14:07.784Z,102106.00
2022-10-17T07:16:35.151Z,102106.88
2022-10-17T07:19:11.069Z,102109.78
2022-10-17T07:21:39.674Z,102108.69
2022-10-17T07:24:08.944Z,102110.25
2022-10-17T07:26:36.310Z,102106.38
2022-10-17T07:29:03.927Z,102114.22
2022-10-17T07:31:38.240Z,102115.16
2022-10-17T07:34:05.429Z,102115.97
2022-10-17T07:36:32.913Z,102115.75
2022-10-17T07:39:02.885Z,102112.69
2022-10-17T07:41:31.201Z,102109.47
2022-10-17T07:43:58.406Z,102112.69
2022-10-17T07:46:32.111Z,102120.19
2022-10-17T07:48:59.907Z,102114.25
2022-10-17T07:51:27.985Z,102118.66
2022-10-17T07:53:55.185Z,102119.53
2022-10-17T07:56:24.763Z,102116.78
2022-10-17T07:58:52.996Z,102124.63
2022-10-17T08:01:20.502Z,102113.09
2022-10-17T08:03:50.806Z,102115.78
2022-10-17T08:06:17.980Z,102110.78
2022-10-17T08:08:45.162Z,102112.63
2022-10-17T08:11:13.211Z,102106.22
2022-10-17T08:13:40.934Z,102109.16
2022-10-17T08:16:09.466Z,102112.56
2022-10-17T08:18:36.916Z,102107.28
2022-10-17T08:21:08.458Z,102115.09
2022-10-17T08:23:36.528Z,102109.41
2022-10-17T08:26:04.827Z,102106.50
2022-10-17T08:28:34.691Z,102114.00
2022-10-17T08:31:02.717Z,102109.34
2022-10-17T08:33:29.845Z,102104.59
2022-10-17T08:35:58.416Z,102107.03
2022-10-17T08:38:27.759Z,102109.91
2022-10-17T08:40:57.696Z,102110.59
2022-10-17T08:43:32.233Z,102111.41
2022-10-17T08:46:04.475Z,102114.09
2022-10-17T08:48:34.940Z,102114.25
2022-10-17T08:51:06.421Z,102110.44
2022-10-17T08:53:41.305Z,102106.56
2022-10-17T08:56:44.534Z,102100.91
2022-10-17T08:59:28.563Z,102103.28
2022-10-17T09:02:10.732Z,102107.16
2022-10-17T09:04:38.014Z,102103.88
2022-10-17T09:07:24.065Z,102113.06
2022-10-17T09:09:57.336Z,102107.22
2022-10-17T09:12:30.492Z,102109.28
2022-10-17T09:15:00.771Z,102107.31
2022-10-17T09:17:34.193Z,102108.75
2022-10-17T09:20:21.612Z,102109.13
2022-10-17T09:25:27.711Z,102111.00
2022-10-17T09:27:59.587Z,102107.84
2022-10-17T09:30:46.220Z,102106.50
2022-10-17T09:33:34.414Z,102099.53
2022-10-17T09:36:10.741Z,102103.13
2022-10-17T09:38:40.001Z,102112.25
2022-10-17T09:41:39.091Z,102115.91
2022-10-17T09:44:15.395Z,102116.78
2022-10-17T09:46:47.000Z,102112.88
2022-10-17T09:49:25.455Z,102108.69
2022-10-17T09:51:52.771Z,102105.22
2022-10-17T09:54:22.573Z,102112.16
2022-10-17T09:57:05.267Z,102113.06
2022-10-17T09:59:36.398Z,102109.16
2022-10-17T10:02:12.759Z,102115.16
2022-10-17T10:05:03.603Z,102110.50
2022-10-17T10:07:33.883Z,102110.97
2022-10-17T10:10:02.984Z,102110.72
2022-10-17T10:12:35.426Z,102110.72
2022-10-17T10:15:02.625Z,102111.38
2022-10-17T10:17:42.028Z,102112.72
2022-10-17T10:20:26.434Z,102109.53
2022-10-17T10:23:05.983Z,102112.38
2022-10-17T10:25:33.577Z,102113.53
2022-10-17T10:28:01.626Z,102112.59
2022-10-17T10:30:30.072Z,102115.16
2022-10-17T10:32:58.302Z,102109.41
2022-10-17T10:35:31.391Z,102105.75
2022-10-17T10:37:59.162Z,102103.94
2022-10-17T10:40:31.406Z,102100.66
2022-10-17T10:43:04.839Z,102102.06
2022-10-17T10:45:47.662Z,102107.41
2022-10-17T10:48:23.486Z,102100.63
2022-10-17T10:50:54.142Z,102098.81
2022-10-17T10:53:21.284Z,102100.44
2022-10-17T10:55:58.642Z,102101.97
2022-10-17T10:58:41.840Z,102099.34
2022-10-17T11:01:28.657Z,102101.25
2022-10-17T11:04:08.087Z,102099.06
2022-10-17T11:06:37.381Z,102092.97
2022-10-17T11:09:23.209Z,102091.94
2022-10-17T11:11:57.718Z,102091.88
2022-10-17T11:14:34.125Z,102088.00
2022-10-17T11:17:38.804Z,102093.72
2022-10-17T11:20:09.241Z,102089.09
2022-10-17T11:22:39.640Z,102086.91
2022-10-17T11:25:34.035Z,102089.31
2022-10-17T11:28:04.973Z,102092.97
2022-10-17T11:30:39.604Z,102083.81
2022-10-17T11:33:07.638Z,102083.75
2022-10-17T11:35:40.696Z,102073.56
2022-10-17T11:38:13.118Z,102071.53
2022-10-17T11:40:42.436Z,102070.41
2022-10-17T11:43:12.617Z,102076.78
2022-10-17T11:45:42.570Z,102067.78
2022-10-17T11:48:35.841Z,102064.03
2022-10-17T11:54:04.328Z,102056.28
2022-10-17T11:56:41.865Z,102053.28
2022-10-17T11:59:12.871Z,102054.88
2022-10-17T12:01:45.611Z,102057.97
2022-10-17T12:04:42.743Z,102048.38
2022-10-17T12:07:24.332Z,102051.09
2022-10-17T12:10:14.685Z,102049.03
2022-10-17T12:12:41.864Z,102049.59
2022-10-17T12:15:11.885Z,102051.16
2022-10-17T12:17:45.314Z,102044.69
2022-10-17T12:20:24.757Z,102047.81
2022-10-17T12:22:53.327Z,102043.97
2022-10-17T12:25:22.584Z,102039.22
2022-10-17T12:27:50.691Z,102047.28
2022-10-17T12:30:19.908Z,102047.97
2022-10-17T12:33:07.531Z,102041.56
2022-10-17T12:35:37.181Z,102045.00
2022-10-17T12:38:04.436Z,102047.63
2022-10-17T12:40:34.758Z,102043.09
2022-10-17T12:43:13.770Z,102036.00
2022-10-17T12:45:53.820Z,102043.25
2022-10-17T12:48:33.222Z,102030.56
2022-10-17T12:51:34.871Z,102032.25
2022-10-17T12:53:57.713Z,102024.97
2022-10-17T12:56:36.972Z,102029.44
2022-10-17T12:59:15.887Z,102023.88
2022-10-17T13:01:48.500Z,102021.41
2022-10-17T13:04:16.179Z,102020.59
2022-10-17T13:06:54.083Z,102015.53
2022-10-17T13:09:29.257Z,102008.44
2022-10-17T13:11:58.575Z,102016.19
2022-10-17T13:14:26.511Z,102013.56
2022-10-17T13:16:55.150Z,102009.97
2022-10-17T13:19:24.058Z,102012.69
2022-10-17T13:21:51.474Z,102018.13
2022-10-17T13:24:23.329Z,102009.03
2022-10-17T13:26:50.478Z,102010.78
2022-10-17T13:29:19.335Z,102009.03
2022-10-17T13:31:51.377Z,102005.34
2022-10-17T13:34:20.191Z,102007.28
2022-10-17T13:36:48.904Z,102005.50
2022-10-17T13:39:23.100Z,102009.97
2022-10-17T13:41:59.880Z,102004.78
2022-10-17T13:44:28.917Z,101999.13
2022-10-17T13:46:56.089Z,102000.75
2022-10-17T13:49:39.297Z,101990.22
2022-10-17T13:52:07.664Z,101992.75
2022-10-17T13:54:37.166Z,101993.03
2022-10-17T13:57:05.129Z,101997.56
2022-10-17T13:59:42.161Z,101995.06
2022-10-17T14:02:20.422Z,101990.88
2022-10-17T14:05:15.614Z,101992.91
2022-10-17T14:08:05.738Z,101994.72
2022-10-17T14:10:26.701Z,101997.44
2022-10-17T14:12:54.743Z,101990.34
2022-10-17T14:15:24.316Z,101984.94
2022-10-17T14:17:56.115Z,101983.97
2022-10-17T14:20:57.547Z,101980.22
2022-10-17T14:23:30.088Z,101983.66
2022-10-17T14:26:04.739Z,101981.88
2022-10-17T14:28:32.066Z,101983.66
2022-10-17T14:31:17.843Z,101977.16
2022-10-17T14:33:50.762Z,101980.66
2022-10-17T14:36:19.516Z,101980.66
2022-10-17T14:38:52.593Z,101982.75
2022-10-17T14:41:43.737Z,101980.91
2022-10-17T14:44:23.144Z,101985.47
2022-10-17T14:47:41.740Z,101988.31
2022-10-17T14:50:19.877Z,101985.81
2022-10-17T14:53:02.437Z,101987.44
2022-10-17T14:55:30.667Z,101984.75
2022-10-17T14:57:58.065Z,101993.06
2022-10-17T15:00:25.960Z,101992.28
2022-10-17T15:02:54.471Z,101984.22
2022-10-17T15:05:23.305Z,101982.47
2022-10-17T15:07:50.890Z,101986.06
2022-10-17T15:10:24.929Z,101985.25
2022-10-17T15:12:57.517Z,101982.69
2022-10-17T15:15:32.122Z,101988.19
2022-10-17T15:17:59.642Z,101985.59
2022-10-17T15:20:28.133Z,101983.97
2022-10-17T15:22:55.367Z,101981.25
2022-10-17T15:25:23.242Z,101981.41
2022-10-17T15:27:50.953Z,101987.88
2022-10-17T15:30:22.658Z,101984.38
2022-10-17T15:32:50.358Z,101984.44
2022-10-17T15:35:17.981Z,101981.00
2022-10-17T15:37:46.806Z,101981.09
2022-10-17T15:40:15.674Z,101982.06
2022-10-17T15:42:43.065Z,101977.69
2022-10-17T15:45:15.865Z,101982.19
2022-10-17T15:47:43.853Z,101980.50
2022-10-17T15:50:13.419Z,101974.31
2022-10-17T15:52:41.397Z,101974.53
2022-10-17T15:55:09.532Z,101972.84
2022-10-17T15:57:41.423Z,101980.25
2022-10-17T16:00:16.614Z,101982.22
2022-10-17T16:02:44.089Z,101980.63
2022-10-17T16:05:19.277Z,101986.22
2022-10-17T16:07:46.834Z,101988.16
2022-10-17T16:10:14.745Z,101982.91
2022-10-17T16:12:41.984Z,101990.31
2022-10-17T16:15:29.489Z,101987.75
2022-10-17T16:17:57.888Z,101995.19
2022-10-17T16:20:26.749Z,101986.31
2022-10-17T16:22:59.788Z,101989.19
2022-10-17T16:25:28.351Z,101993.88
2022-10-17T16:27:56.873Z,101991.31
2022-10-17T16:30:25.238Z,101999.50
2022-10-17T16:32:53.029Z,101995.13
2022-10-17T16:35:22.073Z,101991.63
2022-10-17T16:37:49.683Z,101993.53
2022-10-17T16:40:17.288Z,101992.69
2022-10-17T16:42:44.628Z,101992.84
2022-10-17T16:45:18.352Z,102002.16
2022-10-17T16:47:45.913Z,101999.56
2022-10-17T16:50:13.769Z,102001.41
2022-10-17T16:52:40.987Z,101999.78
2022-10-17T16:55:08.565Z,102004.41
2022-10-17T16:57:35.935Z,102007.22
2022-10-17T17:00:04.254Z,102004.69
2022-10-17T17:02:31.744Z,102006.66
2022-10-17T17:04:59.053Z,102003.03
2022-10-17T17:07:29.361Z,102012.19
2022-10-17T17:09:56.970Z,102012.41
2022-10-17T17:12:24.217Z,102013.38
2022-10-17T17:14:51.444Z,102009.91
2022-10-17T17:17:30.416Z,102009.16
2022-10-17T17:20:06.643Z,102012.91
2022-10-17T17:22:34.388Z,102013.00
2022-10-17T17:25:01.586Z,102008.72
2022-10-17T17:27:29.118Z,102015.31
2022-10-17T17:29:56.513Z,102009.09
2022-10-17T17:32:23.785Z,102010.09
2022-10-17T17:34:51.015Z,102012.19
2022-10-17T17:37:18.225Z,102014.16
2022-10-17T17:39:45.425Z,102008.00
2022-10-17T17:42:12.621Z,102008.94
2022-10-17T17:44:39.851Z,102003.53
2022-10-17T17:47:07.132Z,102006.47
2022-10-17T17:49:34.821Z,102003.19
2022-10-17T17:54:37.249Z,102010.38
2022-10-17T17:57:07.374Z,102010.28
2022-10-17T17:59:34.670Z,102006.72
2022-10-17T18:02:02.923Z,102010.38
2022-10-17T18:04:30.189Z,102009.56
2022-10-17T18:06:57.428Z,102018.31
2022-10-17T18:09:24.593Z,102016.75
2022-10-17T18:11:51.739Z,102021.78
2022-10-17T18:14:23.722Z,102028.69
2022-10-17T18:16:51.100Z,102032.75
2022-10-17T18:19:18.363Z,102034.66
2022-10-17T18:21:45.544Z,102027.72
2022-10-17T18:24:12.630Z,102031.66
2022-10-17T18:26:39.720Z,102032.75
2022-10-17T18:29:07.137Z,102032.69
2022-10-17T18:31:36.158Z,102034.81
2022-10-17T18:34:04.533Z,102033.19
2022-10-17T18:36:32.216Z,102033.38
2022-10-17T18:39:00.271Z,102037.09
2022-10-17T18:41:27.741Z,102043.91
2022-10-17T18:43:55.381Z,102042.19
2022-10-17T18:46:27.030Z,102046.78
2022-10-17T18:48:54.576Z,102049.75
2022-10-17T18:51:22.942Z,102044.31
2022-10-17T18:53:51.901Z,102060.44
2022-10-17T18:56:19.707Z,102055.94
2022-10-17T18:58:46.864Z,102048.88
2022-10-17T19:01:18.140Z,102047.25
2022-10-17T19:03:46.537Z,102051.00
2022-10-17T19:06:15.958Z,102049.88
2022-10-17T19:08:43.586Z,102055.19
2022-10-17T19:11:12.260Z,102055.94
2022-10-17T19:13:39.574Z,102052.25
2022-10-17T19:16:07.860Z,102048.63
2022-10-17T19:18:35.710Z,102053.25
2022-10-17T19:21:04.040Z,102060.38
2022-10-17T19:23:31.305Z,102051.47
2022-10-17T19:26:02.567Z,102060.69
2022-10-17T19:28:29.901Z,102067.13
2022-10-17T19:30:57.340Z,102066.44
2022-10-17T19:33:24.821Z,102065.75
2022-10-17T19:35:56.038Z,102067.44
2022-10-17T19:38:23.297Z,102064.63
2022-10-17T19:40:50.688Z,102062.81
2022-10-17T19:43:18.244Z,102066.69
2022-10-17T19:45:54.505Z,102065.84
2022-10-17T19:48:22.099Z,102072.22
2022-10-17T19:50:50.498Z,102061.50
2022-10-17T19:53:17.933Z,102061.06
2022-10-17T19:55:45.896Z,102059.31
2022-10-17T19:58:13.664Z,102058.34
2022-10-17T20:00:51.918Z,102064.56
2022-10-17T20:03:19.619Z,102052.91
2022-10-17T20:05:46.775Z,102051.78
2022-10-17T20:08:14.675Z,102043.47
2022-10-17T20:10:42.532Z,102042.59
2022-10-17T20:13:10.004Z,102046.16
2022-10-17T20:15:37.491Z,102050.78
2022-10-17T20:18:05.454Z,102042.84
2022-10-17T20:20:35.829Z,102043.91
2022-10-17T20:23:03.553Z,102045.72
2022-10-17T20:25:31.149Z,102044.59
2022-10-17T20:27:58.425Z,102053.63
2022-10-17T20:30:25.635Z,102052.75
2022-10-17T20:32:55.563Z,102054.81
2022-10-17T20:35:22.932Z,102054.94
2022-10-17T20:37:50.103Z,102048.84
2022-10-17T20:40:34.014Z,102066.25
2022-10-17T20:43:01.859Z,102057.56
2022-10-17T20:45:43.707Z,102052.97
2022-10-17T20:48:16.316Z,102056.88
2022-10-17T20:50:43.939Z,102055.75
2022-10-17T20:53:35.376Z,102060.28
2022-10-17T20:56:05.618Z,102070.69
2022-10-17T20:58:32.847Z,102067.03
2022-10-17T21:01:04.644Z,102079.78
2022-10-17T21:03:34.358Z,102076.91
2022-10-17T21:06:01.881Z,102077.00
2022-10-17T21:08:29.127Z,102071.69
2022-10-17T21:11:06.383Z,102068.09
2022-10-17T21:13:33.513Z,102068.19
2022-10-17T21:16:04.838Z,102073.53
2022-10-17T21:18:31.988Z,102064.63
2022-10-17T21:21:09.940Z,102071.91
2022-10-17T21:23:37.632Z,102066.09
2022-10-17T21:26:07.097Z,102061.59
2022-10-17T21:28:34.761Z,102073.22
2022-10-17T21:31:09.191Z,102075.31
2022-10-17T21:33:36.438Z,102062.84
2022-10-17T21:36:04.166Z,102064.56
2022-10-17T21:38:31.415Z,102068.00
2022-10-17T21:40:58.601Z,102066.09
2022-10-17T21:43:25.794Z,102066.00
2022-10-17T21:45:52.946Z,102066.00
2022-10-17T21:48:20.188Z,102065.16
2022-10-17T21:50:47.361Z,102061.47
2022-10-17T21:53:14.610Z,102059.78
2022-10-17T21:55:41.760Z,102058.06
2022-10-17T21:58:08.921Z,102061.81
2022-10-17T22:00:36.057Z,102056.66
2022-10-17T22:03:04.107Z,102066.59
2022-10-17T22:05:31.397Z,102060.38
2022-10-17T22:07:58.582Z,102057.66
2022-10-17T22:10:25.720Z,102050.47
2022-10-17T22:12:52.970Z,102055.00
2022-10-17T22:15:20.213Z,102056.00
2022-10-17T22:17:47.333Z,102049.53
2022-10-17T22:20:14.584Z,102042.44
2022-10-17T22:22:41.719Z,102043.47
2022-10-17T22:25:08.985Z,102046.34
2022-10-17T22:27:36.077Z,102046.53
2022-10-17T22:30:03.714Z,102047.69
2022-10-17T22:32:30.989Z,102051.34
2022-10-17T22:34:58.099Z,102049.63
2022-10-17T22:37:25.192Z,102051.47
2022-10-17T22:39:52.311Z,102046.09
2022-10-17T22:42:19.493Z,102049.78
2022-10-17T22:44:46.655Z,102051.59
2022-10-17T22:47:13.845Z,102048.91
2022-10-17T22:49:40.931Z,102045.44
2022-10-17T22:52:08.047Z,102046.38
2022-10-17T22:54:35.101Z,102046.28
2022-10-17T22:57:02.158Z,102044.63
2022-10-17T22:59:29.294Z,102046.16
2022-10-17T23:01:56.607Z,102035.25
2022-10-17T23:04:23.871Z,102043.31
2022-10-17T23:06:50.993Z,102049.53
2022-10-17T23:09:18.187Z,102050.41
2022-10-17T23:11:45.356Z,102045.28
2022-10-17T23:14:12.513Z,102043.84
2022-10-17T23:16:39.612Z,102040.94
2022-10-17T23:19:06.753Z,102044.31
2022-10-17T23:21:33.888Z,102040.59
2022-10-17T23:24:01.098Z,102045.13
2022-10-17T23:26:28.315Z,102038.78
2022-10-17T23:28:55.586Z,102032.47
2022-10-17T23:31:22.949Z,102033.34
2022-10-17T23:33:50.451Z,102035.06
2022-10-17T23:36:19.013Z,102033.19
2022-10-17T23:38:46.917Z,102029.53
2022-10-17T23:41:29.890Z,102030.34
2022-10-17T23:43:57.154Z,102027.66
2022-10-17T23:46:24.434Z,102029.31
2022-10-17T23:48:51.609Z,102033.03
2022-10-17T23:51:18.821Z,102026.13
2022-10-17T23:53:46.172Z,102027.19
2022-10-17T23:56:13.343Z,102027.25
2022-10-17T23:58:40.675Z,102022.00
